createdAt,value
2019-03-30T00:02:30.385Z,7.89
2019-03-30T00:05:01.160Z,7.94
2019-03-30T00:07:32.015Z,7.96
2019-03-30T00:10:02.775Z,7.90
2019-03-30T00:12:33.605Z,7.85
2019-03-30T00:15:04.442Z,7.88
2019-03-30T00:17:35.344Z,7.79
2019-03-30T00:20:06.476Z,7.78
2019-03-30T00:22:37.242Z,7.74
2019-03-30T00:25:08.218Z,7.71
2019-03-30T00:27:38.954Z,7.67
2019-03-30T00:30:10.067Z,7.61
2019-03-30T00:32:40.839Z,7.66
2019-03-30T00:35:11.695Z,7.68
2019-03-30T00:37:42.432Z,7.66
2019-03-30T00:40:13.379Z,7.61
2019-03-30T00:42:44.426Z,7.59
2019-03-30T00:45:15.199Z,7.54
2019-03-30T00:47:46.132Z,7.57
2019-03-30T00:50:17.050Z,7.57
2019-03-30T00:52:47.772Z,7.48
2019-03-30T00:55:18.521Z,7.45
2019-03-30T00:57:51.517Z,7.44
2019-03-30T01:00:22.341Z,7.52
2019-03-30T01:02:53.097Z,7.47
2019-03-30T01:05:23.890Z,7.42
2019-03-30T01:07:54.705Z,7.44
2019-03-30T01:10:25.584Z,7.40
2019-03-30T01:12:56.593Z,7.38
2019-03-30T01:15:27.535Z,7.38
2019-03-30T01:17:58.309Z,7.41
2019-03-30T01:20:29.049Z,7.40
2019-03-30T01:22:59.762Z,7.44
2019-03-30T01:25:30.618Z,7.48
2019-03-30T01:28:01.344Z,7.47
2019-03-30T01:30:32.097Z,7.41
2019-03-30T01:33:02.868Z,7.47
2019-03-30T01:35:33.943Z,7.50
2019-03-30T01:38:04.703Z,7.41
2019-03-30T01:40:35.478Z,7.42
2019-03-30T01:43:06.446Z,7.42
2019-03-30T01:45:37.216Z,7.46
2019-03-30T01:48:07.956Z,7.42
2019-03-30T01:50:38.719Z,7.35
2019-03-30T01:53:09.626Z,7.28
2019-03-30T01:55:40.435Z,7.21
2019-03-30T01:58:11.204Z,7.26
2019-03-30T02:00:42.003Z,7.16
2019-03-30T02:03:12.934Z,7.17
2019-03-30T02:05:43.721Z,7.19
2019-03-30T02:08:14.558Z,7.20
2019-03-30T02:10:46.350Z,7.19
2019-03-30T02:13:17.318Z,7.19
2019-03-30T02:15:48.084Z,7.19
2019-03-30T02:18:19.923Z,7.18
2019-03-30T02:20:50.750Z,7.15
2019-03-30T02:23:21.479Z,7.15
2019-03-30T02:25:52.417Z,7.19
2019-03-30T02:28:23.172Z,7.16
2019-03-30T02:30:55.038Z,7.14
2019-03-30T02:33:25.790Z,7.08
2019-03-30T02:35:56.568Z,7.08
2019-03-30T02:38:27.491Z,7.08
2019-03-30T02:40:58.288Z,7.02
2019-03-30T02:43:29.185Z,7.08
2019-03-30T02:46:01.108Z,7.08
2019-03-30T02:48:31.960Z,7.02
2019-03-30T02:51:02.856Z,7.00
2019-03-30T02:53:33.668Z,7.04
2019-03-30T02:56:04.420Z,7.05
2019-03-30T02:58:35.306Z,7.05
2019-03-30T03:01:06.371Z,7.10
2019-03-30T03:03:37.235Z,7.05
2019-03-30T03:06:08.011Z,7.04
2019-03-30T03:08:39.005Z,7.03
2019-03-30T03:11:09.762Z,6.95
2019-03-30T03:13:40.645Z,6.99
2019-03-30T03:16:11.663Z,6.94
2019-03-30T03:18:42.565Z,6.92
2019-03-30T03:21:13.484Z,6.93
2019-03-30T03:23:44.266Z,6.88
2019-03-30T03:26:15.273Z,6.88
2019-03-30T03:28:46.151Z,6.91
2019-03-30T03:31:16.915Z,6.92
2019-03-30T03:33:47.790Z,6.90
2019-03-30T03:36:18.522Z,6.93
2019-03-30T03:38:49.546Z,6.91
2019-03-30T03:41:20.304Z,6.91
2019-03-30T03:43:51.417Z,6.93
2019-03-30T03:46:22.149Z,6.96
2019-03-30T03:48:52.994Z,6.94
2019-03-30T03:51:26.754Z,6.93
2019-03-30T03:53:57.742Z,6.95
2019-03-30T03:56:30.682Z,7.01
2019-03-30T03:59:03.073Z,6.99
2019-03-30T04:01:35.668Z,6.99
2019-03-30T04:04:11.069Z,7.01
2019-03-30T04:06:44.275Z,7.02
2019-03-30T04:09:17.697Z,6.95
2019-03-30T04:11:50.348Z,6.88
2019-03-30T04:14:23.727Z,6.04
2019-03-30T04:16:55.049Z,6.78
2019-03-30T04:19:26.679Z,6.77
2019-03-30T04:21:58.255Z,6.74
2019-03-30T04:24:29.732Z,6.74
2019-03-30T04:27:01.036Z,6.73
2019-03-30T04:29:32.827Z,5.99
2019-03-30T04:32:06.557Z,6.74
2019-03-30T04:34:38.005Z,6.71
2019-03-30T04:37:08.938Z,6.68
2019-03-30T04:42:24.056Z,6.67
2019-03-30T04:44:54.988Z,6.69
2019-03-30T04:47:25.809Z,6.68
2019-03-30T04:49:58.930Z,6.69
2019-03-30T04:52:29.815Z,6.67
2019-03-30T04:55:02.599Z,6.67
2019-03-30T04:57:33.629Z,6.82
2019-03-30T05:00:04.864Z,6.90
2019-03-30T05:02:35.768Z,6.95
2019-03-30T05:05:06.972Z,6.96
2019-03-30T05:07:37.948Z,6.94
2019-03-30T05:10:09.149Z,7.03
2019-03-30T05:12:39.908Z,7.18
2019-03-30T05:15:11.041Z,7.20
2019-03-30T05:17:47.601Z,7.22
2019-03-30T05:20:14.911Z,7.36
2019-03-30T05:22:45.688Z,7.44
2019-03-30T05:25:16.618Z,7.46
2019-03-30T05:27:47.468Z,7.61
2019-03-30T05:30:18.342Z,7.74
2019-03-30T05:32:49.642Z,7.98
2019-03-30T05:35:21.410Z,8.11
2019-03-30T05:37:52.962Z,8.21
2019-03-30T05:40:25.765Z,8.24
2019-03-30T05:43:01.415Z,8.22
2019-03-30T05:45:34.898Z,7.45
2019-03-30T05:48:09.948Z,8.19
2019-03-30T05:50:41.577Z,8.12
2019-03-30T05:53:13.460Z,8.21
2019-03-30T05:55:45.098Z,8.21
2019-03-30T05:58:16.011Z,8.12
2019-03-30T06:00:47.571Z,8.10
2019-03-30T06:03:18.985Z,8.20
2019-03-30T06:05:50.595Z,8.18
2019-03-30T06:08:21.983Z,8.15
2019-03-30T06:10:53.404Z,8.21
2019-03-30T06:13:25.376Z,8.17
2019-03-30T06:15:57.153Z,8.21
2019-03-30T06:18:28.515Z,8.20
2019-03-30T06:20:59.763Z,8.36
2019-03-30T06:23:31.116Z,8.45
2019-03-30T06:26:02.882Z,8.41
2019-03-30T06:28:34.406Z,8.44
2019-03-30T06:31:06.002Z,8.49
2019-03-30T06:33:37.998Z,8.63
2019-03-30T06:36:09.491Z,8.73
2019-03-30T06:38:41.439Z,8.82
2019-03-30T06:41:13.589Z,8.96
2019-03-30T06:43:45.122Z,9.01
2019-03-30T06:46:16.986Z,9.07
2019-03-30T06:48:48.525Z,9.19
2019-03-30T06:51:21.166Z,9.29
2019-03-30T06:53:52.712Z,9.39
2019-03-30T06:56:24.270Z,9.37
2019-03-30T06:58:55.626Z,9.37
2019-03-30T07:01:28.750Z,9.43
2019-03-30T07:04:01.380Z,9.54
2019-03-30T07:06:33.774Z,9.61
2019-03-30T07:09:06.742Z,9.63
2019-03-30T07:11:46.945Z,9.71
2019-03-30T07:14:18.060Z,9.76
2019-03-30T07:16:50.305Z,9.75
2019-03-30T07:19:22.537Z,9.64
2019-03-30T07:21:53.501Z,9.73
2019-03-30T07:24:24.728Z,9.77
2019-03-30T07:26:55.715Z,9.76
2019-03-30T07:29:26.737Z,9.75
2019-03-30T07:31:58.048Z,10.00
2019-03-30T07:34:28.819Z,10.11
2019-03-30T07:36:59.947Z,10.07
2019-03-30T07:39:30.752Z,10.28
2019-03-30T07:42:01.846Z,10.36
2019-03-30T07:44:32.636Z,10.44
2019-03-30T07:47:03.410Z,10.44
2019-03-30T07:49:34.216Z,10.44
2019-03-30T07:52:04.940Z,10.51
2019-03-30T07:54:35.706Z,10.61
2019-03-30T07:57:16.532Z,10.65
2019-03-30T07:59:39.030Z,10.74
2019-03-30T08:02:09.787Z,10.75
2019-03-30T08:04:40.516Z,10.78
2019-03-30T08:07:11.287Z,10.89
2019-03-30T08:09:42.062Z,10.93
2019-03-30T08:12:12.791Z,10.94
2019-03-30T08:14:45.238Z,11.14
2019-03-30T08:17:16.141Z,11.24
2019-03-30T08:19:50.194Z,11.30
2019-03-30T08:22:19.373Z,11.26
2019-03-30T08:24:50.123Z,11.37
2019-03-30T08:27:20.854Z,11.46
2019-03-30T08:29:51.592Z,11.54
2019-03-30T08:32:22.360Z,11.62
2019-03-30T08:34:53.249Z,11.72
2019-03-30T08:37:24.040Z,11.84
2019-03-30T08:39:54.827Z,11.85
2019-03-30T08:42:25.730Z,11.85
2019-03-30T08:44:56.485Z,11.83
2019-03-30T08:47:27.233Z,11.88
2019-03-30T08:49:58.023Z,11.84
2019-03-30T08:52:28.779Z,12.06
2019-03-30T08:54:59.517Z,12.06
2019-03-30T08:57:30.287Z,12.04
2019-03-30T09:00:01.388Z,12.02
2019-03-30T09:02:32.299Z,12.11
2019-03-30T09:05:03.142Z,12.06
2019-03-30T09:07:33.891Z,12.11
2019-03-30T09:10:05.460Z,12.21
2019-03-30T09:12:36.386Z,12.17
2019-03-30T09:15:08.018Z,12.22
2019-03-30T09:17:38.778Z,12.15
2019-03-30T09:20:10.337Z,12.05
2019-03-30T09:22:41.107Z,12.23
2019-03-30T09:25:12.138Z,12.28
2019-03-30T09:27:42.862Z,12.32
2019-03-30T09:30:14.058Z,12.47
2019-03-30T09:32:45.352Z,12.42
2019-03-30T09:35:16.175Z,12.53
2019-03-30T09:37:46.982Z,12.72
2019-03-30T09:40:17.748Z,12.82
2019-03-30T09:42:49.472Z,12.84
2019-03-30T09:45:20.233Z,12.92
2019-03-30T09:47:50.973Z,12.95
2019-03-30T09:50:21.797Z,12.98
2019-03-30T09:52:52.588Z,13.04
2019-03-30T09:55:23.373Z,13.06
2019-03-30T09:57:54.258Z,13.05
2019-03-30T10:00:25.025Z,12.99
2019-03-30T10:02:56.952Z,13.08
2019-03-30T10:05:27.769Z,13.03
2019-03-30T10:07:58.596Z,13.05
2019-03-30T10:10:29.339Z,13.11
2019-03-30T10:13:00.128Z,12.94
2019-03-30T10:15:30.888Z,13.07
2019-03-30T10:18:01.727Z,12.89
2019-03-30T10:20:32.539Z,12.93
2019-03-30T10:23:03.274Z,12.85
2019-03-30T10:25:34.245Z,12.79
2019-03-30T10:28:07.067Z,12.70
2019-03-30T10:30:37.912Z,12.68
2019-03-30T10:33:08.699Z,12.85
2019-03-30T10:35:39.493Z,12.85
2019-03-30T10:38:10.257Z,12.80
2019-03-30T10:40:41.036Z,12.89
2019-03-30T10:43:11.798Z,12.87
2019-03-30T10:45:42.536Z,12.90
2019-03-30T10:48:13.400Z,13.05
2019-03-30T10:50:44.153Z,13.11
2019-03-30T10:53:14.910Z,13.13
2019-03-30T10:55:45.642Z,13.19
2019-03-30T10:58:16.443Z,13.20
2019-03-30T11:00:47.174Z,13.23
2019-03-30T11:03:17.931Z,13.30
2019-03-30T11:05:48.646Z,13.32
2019-03-30T11:08:20.459Z,13.47
2019-03-30T11:10:51.191Z,13.47
2019-03-30T11:13:21.940Z,13.55
2019-03-30T11:15:52.689Z,13.56
2019-03-30T11:18:23.449Z,13.55
2019-03-30T11:20:54.184Z,13.55
2019-03-30T11:23:24.954Z,13.60
2019-03-30T11:25:55.658Z,13.56
2019-03-30T11:28:26.399Z,13.58
2019-03-30T11:30:57.108Z,13.60
2019-03-30T11:33:27.876Z,13.65
2019-03-30T11:35:58.600Z,13.65
2019-03-30T11:38:29.357Z,13.51
2019-03-30T11:41:00.136Z,13.60
2019-03-30T11:43:30.937Z,13.44
2019-03-30T11:46:01.800Z,13.42
2019-03-30T11:48:33.511Z,13.36
2019-03-30T11:51:04.216Z,13.47
2019-03-30T11:53:34.979Z,13.30
2019-03-30T11:56:05.688Z,13.43
2019-03-30T11:58:36.538Z,13.34
2019-03-30T12:01:07.540Z,13.23
2019-03-30T12:03:38.581Z,13.30
2019-03-30T12:06:09.778Z,13.20
2019-03-30T12:08:40.590Z,13.19
2019-03-30T12:11:11.352Z,13.17
2019-03-30T12:13:42.128Z,13.08
2019-03-30T12:16:13.105Z,13.04
2019-03-30T12:18:44.034Z,13.18
2019-03-30T12:21:14.762Z,13.26
2019-03-30T12:23:45.568Z,13.39
2019-03-30T12:26:16.764Z,13.36
2019-03-30T12:28:48.045Z,13.37
2019-03-30T12:31:19.155Z,13.45
2019-03-30T12:33:50.543Z,13.47
2019-03-30T12:36:21.719Z,13.55
2019-03-30T12:38:53.122Z,13.61
2019-03-30T12:41:24.460Z,13.64
2019-03-30T12:43:55.696Z,13.66
2019-03-30T12:46:26.776Z,13.72
2019-03-30T12:48:58.008Z,13.65
2019-03-30T12:51:28.989Z,13.46
2019-03-30T12:54:00.439Z,13.49
2019-03-30T12:56:31.349Z,13.48
2019-03-30T12:59:02.848Z,13.48
2019-03-30T13:01:34.214Z,13.42
2019-03-30T13:04:05.590Z,13.40
2019-03-30T13:06:37.005Z,13.29
2019-03-30T13:09:08.643Z,13.26
2019-03-30T13:11:39.833Z,13.17
2019-03-30T13:14:11.444Z,13.19
2019-03-30T13:16:42.902Z,13.16
2019-03-30T13:19:14.199Z,13.09
2019-03-30T13:21:52.641Z,12.99
2019-03-30T13:24:18.671Z,13.02
2019-03-30T13:26:49.981Z,13.00
2019-03-30T13:29:21.220Z,12.95
2019-03-30T13:31:52.584Z,12.82
2019-03-30T13:34:24.097Z,12.84
2019-03-30T13:36:55.283Z,12.85
2019-03-30T13:39:26.908Z,12.84
2019-03-30T13:41:58.852Z,12.74
2019-03-30T13:44:30.145Z,12.65
2019-03-30T13:47:01.189Z,12.71
2019-03-30T13:49:32.584Z,12.61
2019-03-30T13:52:03.757Z,12.65
2019-03-30T13:54:38.508Z,12.77
2019-03-30T13:57:08.300Z,12.68
2019-03-30T13:59:40.575Z,12.72
2019-03-30T14:02:12.208Z,12.61
2019-03-30T14:04:44.671Z,12.58
2019-03-30T14:07:16.181Z,12.50
2019-03-30T14:09:47.441Z,12.54
2019-03-30T14:12:18.752Z,12.43
2019-03-30T14:14:49.993Z,12.58
2019-03-30T14:17:21.378Z,12.57
2019-03-30T14:19:52.707Z,12.61
2019-03-30T14:22:24.384Z,12.54
2019-03-30T14:24:57.864Z,12.44
2019-03-30T14:27:29.027Z,12.50
2019-03-30T14:30:00.479Z,12.50
2019-03-30T14:32:32.279Z,12.36
2019-03-30T14:35:03.946Z,12.34
2019-03-30T14:37:36.337Z,12.43
2019-03-30T14:40:08.592Z,12.54
2019-03-30T14:42:39.884Z,12.51
2019-03-30T14:45:11.611Z,12.44
2019-03-30T14:47:42.821Z,12.45
2019-03-30T14:50:14.095Z,12.32
2019-03-30T14:52:45.595Z,12.41
2019-03-30T14:55:16.858Z,12.39
2019-03-30T14:57:48.212Z,12.40
2019-03-30T15:00:19.423Z,12.47
2019-03-30T15:02:50.741Z,12.51
2019-03-30T15:05:22.088Z,12.47
2019-03-30T15:07:53.333Z,12.49
2019-03-30T15:10:24.881Z,12.39
2019-03-30T15:12:56.418Z,12.38
2019-03-30T15:15:27.838Z,12.41
2019-03-30T15:17:59.236Z,12.44
2019-03-30T15:20:30.394Z,12.43
2019-03-30T15:23:01.810Z,12.42
2019-03-30T15:25:33.217Z,12.39
2019-03-30T15:28:04.369Z,12.35
2019-03-30T15:30:35.917Z,12.23
2019-03-30T15:33:07.029Z,12.12
2019-03-30T15:35:38.170Z,11.95
2019-03-30T15:38:09.194Z,11.94
2019-03-30T15:40:40.606Z,11.86
2019-03-30T15:43:12.026Z,11.81
2019-03-30T15:45:43.460Z,11.94
2019-03-30T15:48:14.908Z,11.79
2019-03-30T15:50:46.431Z,11.79
2019-03-30T15:53:17.676Z,11.72
2019-03-30T15:55:49.112Z,11.76
2019-03-30T15:58:20.408Z,11.65
2019-03-30T16:00:51.881Z,11.68
2019-03-30T16:03:23.026Z,11.57
2019-03-30T16:05:54.492Z,11.50
2019-03-30T16:08:26.003Z,11.54
2019-03-30T16:10:57.141Z,11.42
2019-03-30T16:13:28.379Z,11.37
2019-03-30T16:15:59.678Z,11.34
2019-03-30T16:18:30.882Z,11.26
2019-03-30T16:21:02.385Z,11.22
2019-03-30T16:23:33.607Z,11.19
2019-03-30T16:26:05.039Z,11.22
2019-03-30T16:28:36.442Z,11.12
2019-03-30T16:31:07.675Z,11.19
2019-03-30T16:33:38.903Z,11.05
2019-03-30T16:36:10.317Z,10.84
2019-03-30T16:38:41.653Z,10.77
2019-03-30T16:41:13.078Z,10.86
2019-03-30T16:43:44.474Z,10.85
2019-03-30T16:46:15.730Z,10.76
2019-03-30T16:48:47.232Z,10.71
2019-03-30T16:51:18.355Z,10.73
2019-03-30T16:53:49.552Z,10.62
2019-03-30T16:56:20.908Z,10.65
2019-03-30T16:58:51.946Z,10.70
2019-03-30T17:01:22.962Z,10.67
2019-03-30T17:03:54.680Z,10.61
2019-03-30T17:06:27.494Z,10.57
2019-03-30T17:08:59.282Z,10.51
2019-03-30T17:11:30.859Z,10.39
2019-03-30T17:14:04.861Z,10.49
2019-03-30T17:16:36.911Z,10.43
2019-03-30T17:19:08.317Z,10.46
2019-03-30T17:21:39.198Z,10.39
2019-03-30T17:24:11.789Z,10.42
2019-03-30T17:26:43.182Z,10.45
2019-03-30T17:29:15.555Z,10.32
2019-03-30T17:31:46.707Z,10.42
2019-03-30T17:34:17.879Z,10.38
2019-03-30T17:36:49.946Z,10.35
2019-03-30T17:39:21.217Z,10.28
2019-03-30T17:41:52.402Z,10.38
2019-03-30T17:44:23.738Z,10.37
2019-03-30T17:46:54.757Z,10.41
2019-03-30T17:49:25.861Z,10.50
2019-03-30T17:51:57.095Z,10.51
2019-03-30T17:54:28.254Z,10.49
2019-03-30T17:56:59.286Z,10.50
2019-03-30T17:59:30.280Z,10.48
2019-03-30T18:02:02.484Z,10.50
2019-03-30T18:04:33.541Z,10.55
2019-03-30T18:07:04.822Z,10.58
2019-03-30T18:09:36.025Z,10.52
2019-03-30T18:12:07.070Z,10.45
2019-03-30T18:14:38.119Z,10.37
2019-03-30T18:17:09.207Z,10.21
2019-03-30T18:19:40.330Z,10.26
2019-03-30T18:22:11.662Z,10.35
2019-03-30T18:24:43.414Z,10.24
2019-03-30T18:27:14.598Z,10.16
2019-03-30T18:29:46.897Z,10.14
2019-03-30T18:32:20.255Z,10.11
2019-03-30T18:34:52.171Z,10.02
2019-03-30T18:37:24.940Z,10.09
2019-03-30T18:39:56.771Z,10.12
2019-03-30T18:42:29.409Z,10.13
2019-03-30T18:45:01.810Z,10.07
2019-03-30T18:47:33.333Z,10.05
2019-03-30T18:50:04.948Z,10.02
2019-03-30T18:52:36.545Z,10.05
2019-03-30T18:55:07.909Z,9.96
2019-03-30T18:57:39.043Z,9.99
2019-03-30T19:00:10.544Z,9.91
2019-03-30T19:02:41.632Z,9.82
2019-03-30T19:05:12.840Z,9.84
2019-03-30T19:07:43.910Z,9.68
2019-03-30T19:10:14.816Z,9.67
2019-03-30T19:12:45.838Z,9.72
2019-03-30T19:15:16.928Z,9.69
2019-03-30T19:17:48.336Z,9.60
2019-03-30T19:20:19.405Z,9.57
2019-03-30T19:22:52.180Z,9.67
2019-03-30T19:25:23.324Z,9.61
2019-03-30T19:27:54.526Z,9.65
2019-03-30T19:30:25.512Z,9.70
2019-03-30T19:32:56.585Z,9.75
2019-03-30T19:35:27.662Z,9.77
2019-03-30T19:37:58.816Z,9.78
2019-03-30T19:40:29.848Z,9.75
2019-03-30T19:43:00.829Z,9.88
2019-03-30T19:45:31.943Z,9.77
2019-03-30T19:48:03.075Z,9.78
2019-03-30T19:50:33.965Z,9.85
2019-03-30T19:53:05.033Z,9.86
2019-03-30T19:55:36.304Z,9.77
2019-03-30T19:58:09.217Z,9.67
2019-03-30T20:00:41.673Z,9.77
2019-03-30T20:03:12.960Z,9.77
2019-03-30T20:05:44.801Z,9.80
2019-03-30T20:08:16.245Z,9.80
2019-03-30T20:10:47.375Z,9.83
2019-03-30T20:13:18.470Z,9.85
2019-03-30T20:15:49.519Z,9.85
2019-03-30T20:18:20.490Z,9.79
2019-03-30T20:20:51.752Z,9.86
2019-03-30T20:23:23.801Z,9.75
2019-03-30T20:25:55.996Z,9.79
2019-03-30T20:28:27.030Z,9.86
2019-03-30T20:30:58.058Z,9.82
2019-03-30T20:33:29.087Z,9.85
2019-03-30T20:36:00.187Z,9.88
2019-03-30T20:38:31.524Z,9.98
2019-03-30T20:41:02.680Z,9.91
2019-03-30T20:43:33.993Z,9.85
2019-03-30T20:46:07.247Z,9.90
2019-03-30T20:48:38.685Z,9.92
2019-03-30T20:51:09.738Z,9.97
2019-03-30T20:53:40.835Z,9.85
2019-03-30T20:56:11.896Z,9.89
2019-03-30T20:58:42.915Z,9.90
2019-03-30T21:01:14.089Z,9.93
2019-03-30T21:03:45.730Z,9.94
2019-03-30T21:06:18.129Z,10.01
2019-03-30T21:08:49.802Z,10.04
2019-03-30T21:11:20.904Z,9.99
2019-03-30T21:13:51.820Z,9.99
2019-03-30T21:16:22.915Z,10.01
2019-03-30T21:18:54.672Z,10.06
2019-03-30T21:21:25.534Z,10.01
2019-03-30T21:23:57.565Z,10.03
2019-03-30T21:26:28.933Z,9.98
2019-03-30T21:29:00.207Z,9.98
2019-03-30T21:31:31.585Z,10.01
2019-03-30T21:34:03.174Z,9.95
2019-03-30T21:36:34.484Z,10.00
2019-03-30T21:39:08.779Z,9.95
2019-03-30T21:41:39.925Z,9.97
2019-03-30T21:44:22.029Z,9.87
2019-03-30T21:46:43.745Z,9.77
2019-03-30T21:49:14.666Z,9.81
2019-03-30T21:51:45.639Z,9.76
2019-03-30T21:54:16.723Z,9.75
2019-03-30T21:56:48.201Z,9.65
2019-03-30T21:59:19.162Z,9.67
2019-03-30T22:01:50.141Z,9.67
2019-03-30T22:04:21.137Z,9.61
2019-03-30T22:06:52.343Z,9.64
2019-03-30T22:09:23.511Z,9.62
2019-03-30T22:11:54.953Z,9.56
2019-03-30T22:14:26.229Z,9.51
2019-03-30T22:16:58.578Z,9.58
2019-03-30T22:19:29.698Z,9.59
2019-03-30T22:22:02.331Z,9.64
2019-03-30T22:24:33.397Z,9.62
2019-03-30T22:27:04.737Z,9.63
2019-03-30T22:29:37.037Z,9.58
2019-03-30T22:32:07.998Z,9.69
2019-03-30T22:34:39.018Z,9.62
2019-03-30T22:37:12.568Z,9.61
2019-03-30T22:39:43.559Z,9.56
2019-03-30T22:42:14.492Z,9.51
2019-03-30T22:44:45.580Z,9.37
2019-03-30T22:47:16.964Z,9.28
2019-03-30T22:49:48.281Z,9.20
2019-03-30T22:52:20.476Z,9.17
2019-03-30T22:54:53.496Z,9.09
2019-03-30T22:57:26.598Z,9.06
2019-03-30T22:59:57.598Z,9.07
2019-03-30T23:02:28.898Z,8.96
2019-03-30T23:05:00.380Z,8.90
2019-03-30T23:07:31.486Z,8.82
2019-03-30T23:10:04.994Z,8.68
2019-03-30T23:12:38.012Z,8.66
2019-03-30T23:15:09.200Z,7.70
2019-03-30T23:17:41.439Z,8.50
2019-03-30T23:20:12.663Z,8.51
2019-03-30T23:22:43.711Z,8.44
2019-03-30T23:25:14.765Z,8.40
2019-03-30T23:27:45.825Z,8.36
2019-03-30T23:30:17.149Z,8.32
2019-03-30T23:32:48.233Z,8.28
2019-03-30T23:35:19.632Z,8.17
2019-03-30T23:37:50.686Z,8.20
2019-03-30T23:40:21.802Z,8.20
2019-03-30T23:42:52.910Z,8.17
2019-03-30T23:45:23.917Z,8.15
2019-03-30T23:47:54.872Z,8.06
2019-03-30T23:50:25.866Z,8.06
2019-03-30T23:52:57.080Z,7.98
2019-03-30T23:55:28.136Z,7.99
2019-03-30T23:57:59.015Z,7.92
